createdAt,value
2023-04-11T00:00:24.586Z,4.47
2023-04-11T00:02:52.597Z,4.35
2023-04-11T00:05:21.137Z,4.88
2023-04-11T00:07:48.377Z,5.32
2023-04-11T00:10:15.693Z,4.90
2023-04-11T00:12:45.441Z,4.97
2023-04-11T00:15:12.938Z,5.28
2023-04-11T00:17:41.882Z,5.35
2023-04-11T00:20:14.030Z,5.50
2023-04-11T00:22:42.357Z,5.97
2023-04-11T00:25:09.768Z,6.05
2023-04-11T00:27:37.055Z,5.68
2023-04-11T00:30:05.819Z,6.72
2023-04-11T00:32:34.324Z,5.70
2023-04-11T00:35:02.078Z,5.53
2023-04-11T00:37:29.428Z,5.45
2023-04-11T00:39:56.716Z,6.38
2023-04-11T00:42:24.073Z,6.00
2023-04-11T00:44:51.374Z,5.82
2023-04-11T00:47:20.159Z,5.13
2023-04-11T00:49:49.040Z,6.00
2023-04-11T00:52:16.440Z,5.80
2023-04-11T00:54:43.798Z,6.28
2023-04-11T00:57:11.281Z,5.60
2023-04-11T00:59:38.751Z,5.95
2023-04-11T01:02:06.561Z,5.35
2023-04-11T01:04:34.276Z,6.40
2023-04-11T01:07:04.427Z,5.82
2023-04-11T01:09:32.909Z,6.32
2023-04-11T01:12:04.143Z,6.45
2023-04-11T01:14:31.380Z,5.82
2023-04-11T01:17:02.000Z,7.07
2023-04-11T01:19:29.681Z,6.10
2023-04-11T01:21:58.163Z,6.20
2023-04-11T01:24:25.684Z,6.50
2023-04-11T01:26:52.954Z,6.43
2023-04-11T01:29:20.886Z,6.30
2023-04-11T01:31:48.304Z,5.88
2023-04-11T01:34:19.144Z,6.47
2023-04-11T01:36:48.032Z,6.20
2023-04-11T01:39:15.723Z,6.30
2023-04-11T01:41:43.591Z,6.55
2023-04-11T01:44:12.049Z,5.95
2023-04-11T01:46:40.114Z,6.25
2023-04-11T01:49:08.118Z,6.43
2023-04-11T01:51:35.519Z,6.30
2023-04-11T01:54:05.557Z,6.43
2023-04-11T01:56:33.729Z,6.43
2023-04-11T01:59:01.607Z,5.82
2023-04-11T02:01:28.971Z,6.13
2023-04-11T02:03:58.106Z,6.53
2023-04-11T02:06:27.850Z,6.07
2023-04-11T02:08:57.983Z,6.32
2023-04-11T02:11:25.769Z,5.80
2023-04-11T02:13:53.427Z,5.40
2023-04-11T02:16:21.108Z,6.05
2023-04-11T02:18:51.153Z,5.93
2023-04-11T02:21:18.795Z,6.07
2023-04-11T02:23:46.203Z,6.07
2023-04-11T02:26:16.785Z,6.25
2023-04-11T02:28:44.138Z,6.07
2023-04-11T02:31:13.312Z,6.63
2023-04-11T02:33:45.459Z,5.65
2023-04-11T02:36:15.936Z,5.65
2023-04-11T02:38:43.310Z,5.65
2023-04-11T02:41:13.624Z,5.97
2023-04-11T02:43:40.808Z,5.72
2023-04-11T02:46:12.626Z,6.75
2023-04-11T02:48:43.718Z,5.95
2023-04-11T02:51:13.453Z,6.65
2023-04-11T02:53:41.326Z,5.50
2023-04-11T02:56:19.369Z,5.72
2023-04-11T02:58:52.857Z,6.40
2023-04-11T03:01:25.282Z,6.35
2023-04-11T03:03:58.877Z,6.43
2023-04-11T03:06:34.838Z,6.85
2023-04-11T03:09:02.879Z,5.88
2023-04-11T03:11:32.383Z,6.47
2023-04-11T03:14:00.165Z,6.57
2023-04-11T03:16:28.550Z,6.63
2023-04-11T03:18:56.351Z,6.60
2023-04-11T03:21:24.097Z,6.63
2023-04-11T03:23:51.303Z,7.35
2023-04-11T03:26:19.226Z,6.33
2023-04-11T03:28:46.890Z,6.10
2023-04-11T03:31:20.297Z,6.60
2023-04-11T03:33:49.478Z,6.75
2023-04-11T03:36:20.383Z,7.30
2023-04-11T03:38:48.467Z,6.78
2023-04-11T03:41:16.258Z,7.18
2023-04-11T03:43:43.846Z,7.50
2023-04-11T03:46:11.317Z,6.28
2023-04-11T03:48:47.601Z,7.03
2023-04-11T03:51:21.137Z,7.07
2023-04-11T03:54:02.673Z,7.40
2023-04-11T03:56:34.869Z,5.68
2023-04-11T03:59:02.611Z,7.35
2023-04-11T04:01:44.978Z,7.70
2023-04-11T04:04:15.244Z,7.72
2023-04-11T04:06:50.003Z,8.32
2023-04-11T04:09:21.680Z,7.30
2023-04-11T04:11:57.769Z,7.32
2023-04-11T04:14:37.880Z,7.55
2023-04-11T04:17:05.657Z,7.43
2023-04-11T04:19:33.672Z,7.95
2023-04-11T04:22:01.011Z,7.45
2023-04-11T04:24:44.536Z,7.32
2023-04-11T04:27:21.879Z,7.60
2023-04-11T04:29:52.946Z,6.13
2023-04-11T04:32:36.414Z,7.57
2023-04-11T04:35:11.114Z,7.00
2023-04-11T04:37:46.070Z,7.00
2023-04-11T04:40:27.817Z,7.03
2023-04-11T04:43:02.548Z,7.95
2023-04-11T04:45:51.565Z,7.18
2023-04-11T04:48:27.906Z,8.13
2023-04-11T04:50:57.550Z,7.88
2023-04-11T04:53:24.759Z,7.22
2023-04-11T04:55:58.765Z,8.25
2023-04-11T04:58:29.570Z,7.90
2023-04-11T05:01:02.996Z,6.53
2023-04-11T05:03:35.239Z,7.95
2023-04-11T05:06:06.816Z,7.63
2023-04-11T05:08:40.248Z,7.78
2023-04-11T05:11:20.313Z,7.38
2023-04-11T05:13:48.097Z,7.30
2023-04-11T05:16:17.857Z,8.13
2023-04-11T05:18:48.729Z,8.13
2023-04-11T05:21:18.086Z,8.60
2023-04-11T05:23:52.848Z,8.55
2023-04-11T05:26:20.643Z,7.45
2023-04-11T05:28:48.202Z,7.25
2023-04-11T05:31:23.781Z,8.68
2023-04-11T05:33:55.264Z,7.95
2023-04-11T05:36:23.842Z,6.88
2023-04-11T05:38:52.455Z,8.30
2023-04-11T05:41:20.855Z,7.43
2023-04-11T05:43:51.467Z,7.85
2023-04-11T05:46:23.452Z,7.13
2023-04-11T05:48:52.202Z,7.53
2023-04-11T05:51:22.116Z,7.20
2023-04-11T05:53:53.156Z,7.10
2023-04-11T05:56:20.987Z,6.78
2023-04-11T05:58:54.334Z,6.95
2023-04-11T06:01:22.672Z,7.35
2023-04-11T06:03:50.272Z,7.20
2023-04-11T06:06:21.753Z,7.13
2023-04-11T06:08:52.103Z,8.02
2023-04-11T06:11:19.663Z,6.57
2023-04-11T06:13:48.728Z,7.10
2023-04-11T06:16:16.523Z,7.30
2023-04-11T06:18:43.916Z,6.78
2023-04-11T06:21:11.549Z,6.60
2023-04-11T06:23:38.818Z,8.23
2023-04-11T06:26:06.233Z,7.97
2023-04-11T06:28:35.531Z,7.95
2023-04-11T06:31:03.748Z,7.38
2023-04-11T06:33:31.601Z,7.45
2023-04-11T06:36:07.336Z,7.72
2023-04-11T06:38:39.503Z,7.97
2023-04-11T06:41:13.888Z,6.88
2023-04-11T06:43:41.426Z,8.18
2023-04-11T06:46:17.241Z,7.82
2023-04-11T06:48:55.348Z,7.50
2023-04-11T06:52:14.943Z,7.57
2023-04-11T06:54:44.548Z,6.22
2023-04-11T06:57:22.339Z,6.53
2023-04-11T06:59:49.945Z,7.25
2023-04-11T07:02:39.848Z,7.65
2023-04-11T07:05:20.575Z,7.82
2023-04-11T07:07:48.508Z,6.75
2023-04-11T07:10:16.282Z,7.63
2023-04-11T07:12:44.748Z,8.13
2023-04-11T07:15:21.639Z,7.80
2023-04-11T07:17:53.013Z,8.38
2023-04-11T07:20:23.395Z,8.68
2023-04-11T07:22:54.732Z,8.13
2023-04-11T07:25:27.537Z,7.95
2023-04-11T07:27:56.210Z,8.23
2023-04-11T07:30:25.261Z,7.13
2023-04-11T07:32:54.024Z,8.15
2023-04-11T07:35:26.539Z,7.85
2023-04-11T07:37:56.075Z,7.78
2023-04-11T07:40:32.693Z,8.18
2023-04-11T07:43:07.448Z,7.90
2023-04-11T07:45:44.497Z,7.78
2023-04-11T07:48:23.870Z,8.23
2023-04-11T07:50:51.976Z,8.15
2023-04-11T07:53:29.684Z,7.97
2023-04-11T07:56:03.531Z,8.52
2023-04-11T07:58:31.271Z,8.07
2023-04-11T08:01:02.339Z,8.57
2023-04-11T08:03:34.429Z,8.73
2023-04-11T08:06:05.568Z,5.72
2023-04-11T08:08:39.179Z,7.18
2023-04-11T08:11:09.721Z,7.63
2023-04-11T08:13:40.125Z,7.60
2023-04-11T08:16:33.932Z,7.63
2023-04-11T08:19:17.713Z,7.38
2023-04-11T08:21:53.463Z,7.25
2023-04-11T08:25:07.777Z,7.45
2023-04-11T08:27:32.213Z,7.70
2023-04-11T08:29:59.826Z,8.48
2023-04-11T08:32:39.357Z,6.82
2023-04-11T08:35:09.553Z,8.43
2023-04-11T08:40:43.229Z,7.70
2023-04-11T08:43:14.352Z,7.32
2023-04-11T08:45:51.618Z,7.03
2023-04-11T08:48:37.652Z,7.43
2023-04-11T08:51:36.399Z,7.70
2023-04-11T08:54:15.565Z,7.13
2023-04-11T08:56:50.278Z,7.30
2023-04-11T08:59:35.554Z,6.95
2023-04-11T09:02:10.004Z,7.10
2023-04-11T09:04:51.948Z,6.95
2023-04-11T09:07:37.738Z,7.25
2023-04-11T09:10:24.417Z,7.03
2023-04-11T09:12:59.962Z,7.13
2023-04-11T09:15:37.718Z,6.07
2023-04-11T09:22:14.922Z,6.07
2023-04-11T09:25:02.236Z,7.30
2023-04-11T09:27:56.001Z,6.43
2023-04-11T09:30:27.690Z,7.05
2023-04-11T09:33:28.710Z,6.97
2023-04-11T09:36:50.183Z,6.40
2023-04-11T09:39:30.184Z,6.13
2023-04-11T09:42:26.825Z,6.20
2023-04-11T09:45:03.326Z,6.28
2023-04-11T09:48:16.458Z,5.93
2023-04-11T09:51:34.430Z,5.53
2023-04-11T09:57:09.047Z,5.70
2023-04-11T09:59:42.701Z,5.82
2023-04-11T10:02:14.220Z,6.15
2023-04-11T10:04:43.597Z,5.53
2023-04-11T10:07:21.564Z,5.85
2023-04-11T10:09:59.728Z,5.70
2023-04-11T10:12:36.299Z,5.55
2023-04-11T10:15:11.515Z,5.38
2023-04-11T10:17:42.158Z,5.00
2023-04-11T10:20:28.318Z,5.20
2023-04-11T10:23:01.148Z,5.27
2023-04-11T10:25:30.283Z,5.40
2023-04-11T10:28:04.180Z,5.10
2023-04-11T10:30:43.869Z,5.63
2023-04-11T10:33:15.940Z,4.88
2023-04-11T10:36:08.485Z,5.03
2023-04-11T10:38:50.800Z,5.00
2023-04-11T10:41:26.636Z,5.00
2023-04-11T10:44:12.838Z,5.07
2023-04-11T10:46:57.652Z,4.78
2023-04-11T10:50:19.496Z,4.87
2023-04-11T10:56:38.613Z,4.88
2023-04-11T10:59:38.995Z,5.20
2023-04-11T11:02:08.650Z,4.70
2023-04-11T11:04:47.223Z,5.13
2023-04-11T11:07:17.384Z,5.00
2023-04-11T11:09:53.313Z,5.20
2023-04-11T11:12:23.110Z,4.97
2023-04-11T11:14:50.787Z,5.45
2023-04-11T11:17:18.497Z,4.73
2023-04-11T11:20:03.990Z,5.55
2023-04-11T11:22:47.297Z,5.00
2023-04-11T11:25:35.726Z,4.95
2023-04-11T11:28:12.756Z,4.82
2023-04-11T11:31:09.627Z,5.57
2023-04-11T11:33:40.824Z,4.68
2023-04-11T11:36:29.373Z,5.70
2023-04-11T11:38:59.712Z,5.20
2023-04-11T11:41:42.243Z,4.85
2023-04-11T11:44:21.826Z,5.07
2023-04-11T11:47:11.969Z,5.40
2023-04-11T11:49:54.089Z,5.55
2023-04-11T11:57:03.609Z,4.75
2023-04-11T11:59:39.600Z,5.10
2023-04-11T12:02:08.932Z,5.20
2023-04-11T12:04:39.601Z,5.10
2023-04-11T12:07:13.847Z,4.65
2023-04-11T12:09:44.688Z,4.57
2023-04-11T12:12:29.383Z,4.73
2023-04-11T12:15:05.299Z,5.18
2023-04-11T12:17:37.639Z,4.80
2023-04-11T12:20:08.800Z,4.32
2023-04-11T12:22:44.627Z,4.22
2023-04-11T12:25:19.416Z,4.60
2023-04-11T12:27:47.282Z,4.43
2023-04-11T12:30:20.381Z,4.68
2023-04-11T12:32:54.242Z,5.03
2023-04-11T12:35:21.666Z,4.82
2023-04-11T12:37:51.429Z,4.87
2023-04-11T12:40:21.985Z,4.70
2023-04-11T12:43:00.153Z,4.38
2023-04-11T12:45:30.821Z,4.70
2023-04-11T12:47:59.096Z,4.47
2023-04-11T12:50:27.138Z,4.67
2023-04-11T12:52:55.692Z,5.07
2023-04-11T12:55:23.999Z,5.20
2023-04-11T12:57:52.005Z,4.97
2023-04-11T13:00:19.843Z,4.10
2023-04-11T13:02:52.369Z,4.20
2023-04-11T13:05:21.833Z,4.30
2023-04-11T13:07:49.353Z,4.28
2023-04-11T13:10:28.316Z,4.70
2023-04-11T13:13:15.344Z,4.45
2023-04-11T13:15:46.638Z,4.23
2023-04-11T13:18:18.183Z,4.72
2023-04-11T13:20:48.340Z,4.75
2023-04-11T13:23:18.258Z,4.45
2023-04-11T13:25:51.157Z,4.60
2023-04-11T13:28:20.453Z,4.57
2023-04-11T13:30:49.978Z,4.80
2023-04-11T13:33:18.317Z,4.28
2023-04-11T13:35:54.557Z,4.28
2023-04-11T13:38:30.381Z,4.75
2023-04-11T13:41:13.717Z,4.80
2023-04-11T13:43:43.952Z,4.25
2023-04-11T13:46:21.829Z,4.72
2023-04-11T13:48:56.617Z,4.32
2023-04-11T13:51:27.821Z,4.22
2023-04-11T13:53:58.178Z,4.07
2023-04-11T13:56:35.872Z,4.47
2023-04-11T13:59:05.283Z,4.18
2023-04-11T14:01:42.471Z,4.47
2023-04-11T14:04:17.671Z,4.88
2023-04-11T14:06:45.205Z,4.90
2023-04-11T14:09:12.703Z,4.60
2023-04-11T14:11:40.238Z,4.25
2023-04-11T14:14:12.114Z,4.18
2023-04-11T14:16:41.121Z,4.18
2023-04-11T14:19:25.682Z,5.10
2023-04-11T14:21:56.096Z,4.55
2023-04-11T14:24:30.249Z,5.00
2023-04-11T14:27:00.823Z,4.90
2023-04-11T14:29:37.235Z,4.72
2023-04-11T14:32:04.755Z,4.93
2023-04-11T14:35:00.028Z,4.45
2023-04-11T14:37:27.901Z,4.15
2023-04-11T14:39:55.398Z,4.43
2023-04-11T14:42:26.730Z,4.70
2023-04-11T14:44:56.922Z,4.33
2023-04-11T14:47:37.499Z,5.03
2023-04-11T14:50:10.532Z,4.63
2023-04-11T14:52:38.531Z,4.70
2023-04-11T14:55:07.146Z,5.00
2023-04-11T14:57:47.753Z,5.33
2023-04-11T15:00:35.907Z,5.40
2023-04-11T15:03:09.082Z,5.13
2023-04-11T15:05:59.012Z,5.47
2023-04-11T15:08:27.796Z,5.10
2023-04-11T15:10:59.302Z,5.53
2023-04-11T15:13:30.836Z,5.20
2023-04-11T15:16:04.970Z,5.78
2023-04-11T15:18:36.157Z,5.53
2023-04-11T15:21:17.180Z,5.13
2023-04-11T15:23:47.160Z,5.10
2023-04-11T15:26:16.894Z,5.38
2023-04-11T15:28:51.345Z,5.85
2023-04-11T15:31:28.366Z,5.65
2023-04-11T15:34:07.239Z,6.00
2023-04-11T15:36:38.480Z,5.40
2023-04-11T15:39:27.925Z,5.28
2023-04-11T15:41:55.469Z,5.65
2023-04-11T15:44:25.588Z,5.63
2023-04-11T15:47:00.574Z,4.72
2023-04-11T15:49:49.093Z,5.37
2023-04-11T15:52:23.135Z,5.60
2023-04-11T15:54:50.414Z,5.95
2023-04-11T15:57:21.396Z,5.30
2023-04-11T15:59:55.771Z,5.30
2023-04-11T16:02:27.153Z,5.67
2023-04-11T16:04:58.813Z,5.78
2023-04-11T16:07:32.886Z,5.47
2023-04-11T16:10:04.736Z,5.75
2023-04-11T16:12:32.277Z,5.80
2023-04-11T16:15:05.715Z,6.30
2023-04-11T16:17:38.134Z,5.70
2023-04-11T16:20:14.994Z,5.50
2023-04-11T16:22:46.720Z,5.45
2023-04-11T16:25:21.706Z,6.20
2023-04-11T16:27:57.509Z,5.67
2023-04-11T16:30:29.890Z,6.00
2023-04-11T16:32:57.598Z,5.15
2023-04-11T16:35:33.297Z,6.25
2023-04-11T16:38:01.034Z,6.03
2023-04-11T16:40:34.856Z,5.80
2023-04-11T16:43:06.595Z,5.43
2023-04-11T16:45:37.070Z,5.90
2023-04-11T16:48:06.363Z,5.70
2023-04-11T16:50:37.990Z,5.45
2023-04-11T16:53:05.720Z,6.13
2023-04-11T16:55:37.500Z,5.60
2023-04-11T16:58:07.199Z,5.45
2023-04-11T17:00:38.112Z,5.63
2023-04-11T17:03:17.404Z,6.03
2023-04-11T17:05:46.308Z,5.57
2023-04-11T17:08:15.025Z,5.80
2023-04-11T17:10:42.966Z,6.35
2023-04-11T17:13:12.445Z,5.90
2023-04-11T17:15:42.676Z,6.38
2023-04-11T17:18:10.338Z,6.40
2023-04-11T17:20:39.319Z,6.03
2023-04-11T17:23:06.896Z,6.10
2023-04-11T17:25:34.926Z,5.78
2023-04-11T17:28:29.103Z,5.20
2023-04-11T17:30:56.654Z,6.20
2023-04-11T17:33:24.953Z,5.78
2023-04-11T17:35:52.896Z,5.63
2023-04-11T17:38:20.772Z,5.75
2023-04-11T17:40:48.060Z,5.95
2023-04-11T17:43:15.860Z,5.87
2023-04-11T17:45:48.014Z,5.57
2023-04-11T17:48:16.966Z,5.53
2023-04-11T17:50:49.274Z,5.40
2023-04-11T17:53:16.430Z,5.75
2023-04-11T17:55:48.184Z,5.57
2023-04-11T17:58:17.330Z,5.80
2023-04-11T18:00:56.244Z,5.72
2023-04-11T18:03:27.913Z,5.85
2023-04-11T18:05:55.832Z,5.70
2023-04-11T18:08:35.498Z,5.70
2023-04-11T18:11:10.326Z,6.13
2023-04-11T18:13:37.524Z,5.63
2023-04-11T18:16:05.086Z,5.05
2023-04-11T18:18:32.449Z,5.72
2023-04-11T18:21:04.866Z,5.70
2023-04-11T18:23:34.691Z,5.95
2023-04-11T18:26:02.657Z,6.25
2023-04-11T18:28:32.037Z,5.95
2023-04-11T18:30:59.689Z,6.22
2023-04-11T18:33:27.169Z,6.30
2023-04-11T18:35:55.908Z,5.63
2023-04-11T18:38:23.685Z,5.85
2023-04-11T18:40:55.404Z,5.97
2023-04-11T18:43:25.218Z,6.35
2023-04-11T18:45:52.509Z,5.97
2023-04-11T18:48:19.782Z,5.95
2023-04-11T18:50:57.593Z,6.05
2023-04-11T18:53:25.134Z,6.45
2023-04-11T18:55:52.413Z,6.50
2023-04-11T18:58:23.006Z,5.63
2023-04-11T19:00:53.042Z,6.20
2023-04-11T19:03:21.009Z,6.20
2023-04-11T19:05:51.782Z,5.90
2023-04-11T19:08:47.016Z,5.72
2023-04-11T19:11:14.895Z,6.20
2023-04-11T19:13:48.916Z,6.10
2023-04-11T19:16:16.424Z,6.30
2023-04-11T19:18:52.954Z,6.18
2023-04-11T19:21:20.261Z,5.70
2023-04-11T19:23:57.963Z,5.93
2023-04-11T19:26:30.213Z,6.07
2023-04-11T19:28:58.499Z,5.55
2023-04-11T19:31:27.210Z,6.32
2023-04-11T19:34:00.990Z,5.93
2023-04-11T19:36:29.846Z,5.65
2023-04-11T19:38:59.525Z,5.90
2023-04-11T19:41:28.685Z,5.50
2023-04-11T19:43:58.841Z,5.57
2023-04-11T19:46:29.461Z,5.57
2023-04-11T19:48:57.450Z,6.10
2023-04-11T19:51:24.762Z,5.73
2023-04-11T19:53:52.135Z,5.32
2023-04-11T19:56:19.635Z,5.70
2023-04-11T19:58:47.177Z,5.75
2023-04-11T20:01:16.144Z,5.68
2023-04-11T20:03:43.799Z,5.72
2023-04-11T20:06:13.121Z,6.53
2023-04-11T20:08:40.678Z,5.70
2023-04-11T20:11:08.141Z,5.82
2023-04-11T20:13:36.357Z,5.30
2023-04-11T20:16:07.776Z,5.45
2023-04-11T20:18:36.284Z,5.57
2023-04-11T20:21:08.024Z,5.40
2023-04-11T20:23:39.609Z,5.47
2023-04-11T20:26:07.048Z,6.22
2023-04-11T20:28:34.589Z,5.60
2023-04-11T20:31:03.200Z,5.93
2023-04-11T20:33:30.597Z,5.80
2023-04-11T20:35:58.218Z,5.97
2023-04-11T20:38:26.737Z,5.80
2023-04-11T20:40:54.052Z,6.27
2023-04-11T20:43:21.269Z,6.20
2023-04-11T20:45:48.748Z,6.07
2023-04-11T20:48:17.008Z,5.97
2023-04-11T20:50:47.518Z,6.05
2023-04-11T20:53:14.932Z,6.20
2023-04-11T20:55:44.138Z,6.50
2023-04-11T20:58:12.213Z,6.10
2023-04-11T21:00:40.873Z,6.13
2023-04-11T21:03:08.343Z,6.22
2023-04-11T21:05:39.157Z,5.90
2023-04-11T21:08:07.038Z,6.47
2023-04-11T21:10:34.306Z,6.30
2023-04-11T21:13:01.528Z,5.93
2023-04-11T21:15:29.025Z,5.85
2023-04-11T21:17:56.159Z,5.90
2023-04-11T21:20:24.374Z,6.35
2023-04-11T21:22:55.251Z,6.50
2023-04-11T21:25:23.787Z,6.38
2023-04-11T21:27:53.754Z,6.38
2023-04-11T21:30:21.001Z,5.85
2023-04-11T21:32:48.360Z,5.93
2023-04-11T21:35:15.812Z,6.60
2023-04-11T21:37:48.504Z,6.55
2023-04-11T21:40:17.464Z,6.65
2023-04-11T21:42:45.002Z,6.70
2023-04-11T21:45:12.163Z,6.05
2023-04-11T21:47:41.853Z,6.15
2023-04-11T21:50:09.487Z,6.22
2023-04-11T21:52:37.073Z,6.40
2023-04-11T21:55:09.135Z,6.40
2023-04-11T21:57:38.664Z,6.82
2023-04-11T22:00:08.085Z,6.55
2023-04-11T22:02:42.477Z,6.07
2023-04-11T22:05:13.186Z,5.97
2023-04-11T22:07:46.937Z,6.18
2023-04-11T22:10:14.651Z,5.95
2023-04-11T22:12:42.256Z,6.10
2023-04-11T22:15:11.362Z,6.43
2023-04-11T22:17:38.881Z,6.57
2023-04-11T22:20:07.132Z,6.77
2023-04-11T22:22:37.680Z,6.90
2023-04-11T22:25:05.743Z,6.75
2023-04-11T22:27:34.832Z,7.03
2023-04-11T22:30:02.849Z,6.63
2023-04-11T22:32:31.437Z,6.03
2023-04-11T22:34:59.996Z,6.85
2023-04-11T22:37:27.611Z,6.85
2023-04-11T22:39:56.224Z,6.22
2023-04-11T22:42:23.553Z,6.40
2023-04-11T22:44:51.094Z,6.77
2023-04-11T22:47:22.088Z,5.60
2023-04-11T22:49:50.605Z,7.05
2023-04-11T22:52:26.650Z,6.43
2023-04-11T22:54:56.266Z,6.85
2023-04-11T22:57:23.721Z,6.27
2023-04-11T22:59:51.048Z,6.60
2023-04-11T23:02:20.748Z,6.80
2023-04-11T23:04:48.091Z,6.90
2023-04-11T23:07:21.961Z,6.60
2023-04-11T23:09:49.770Z,7.17
2023-04-11T23:12:17.312Z,6.82
2023-04-11T23:14:49.992Z,7.05
2023-04-11T23:17:17.211Z,6.50
2023-04-11T23:19:47.718Z,6.65
2023-04-11T23:22:14.991Z,6.82
2023-04-11T23:24:42.163Z,6.85
2023-04-11T23:27:10.618Z,7.15
2023-04-11T23:29:38.307Z,6.95
2023-04-11T23:32:05.784Z,6.68
2023-04-11T23:34:33.040Z,6.87
2023-04-11T23:37:00.585Z,7.03
2023-04-11T23:39:27.818Z,7.38
2023-04-11T23:42:04.017Z,7.28
2023-04-11T23:44:31.607Z,6.82
2023-04-11T23:47:04.317Z,7.07
2023-04-11T23:49:34.380Z,7.03
2023-04-11T23:52:03.131Z,6.65
2023-04-11T23:54:30.569Z,7.05
2023-04-11T23:56:58.431Z,6.45
2023-04-11T23:59:26.024Z,6.65
